Burnham, Illinois
Current Conditions -  °F | °C
As of 4:45 PM on Saturday 25 Oct 2014 (Local Time) from KGYY Reporting Station
Few Clouds Few Clouds  
Wind Chill: 73°   Ceiling: Unl
Heat Index: 73°   Visibility: 20mi
Dew Point: 28°   Wind: 17mph
Humidity: 19%   Direction: 290°WNW
Pressure: 29.91"   Gusts: 29mph
Location:  41.6563°N, 87.5444°W
Report Text: KGYY 252145Z 29015G25KT 20SM FEW200 23/M02 A2991
Loading
Personal Weather Stations






























Interactive Weather Map
Tropical Storm Tracking
New forecast layout! Learn more

10-Day Weather Forecast

Advertisements
Track Severe Weather on mobile